createdAt,value
2023-04-30T00:01:15.786Z,14.80
2023-04-30T00:03:45.603Z,15.00
2023-04-30T00:06:15.634Z,10.40
2023-04-30T00:08:45.041Z,11.50
2023-04-30T00:11:19.156Z,14.93
2023-04-30T00:13:45.861Z,10.37
2023-04-30T00:16:20.250Z,12.37
2023-04-30T00:18:46.950Z,12.33
2023-04-30T00:21:16.580Z,12.57
2023-04-30T00:23:45.588Z,20.07
2023-04-30T00:26:15.586Z,9.00
2023-04-30T00:28:46.374Z,12.63
2023-04-30T00:31:13.088Z,18.07
2023-04-30T00:33:44.090Z,18.93
2023-04-30T00:36:18.692Z,22.93
2023-04-30T00:38:51.597Z,21.27
2023-04-30T00:41:18.835Z,12.37
2023-04-30T00:43:47.193Z,14.37
2023-04-30T00:46:23.204Z,13.17
2023-04-30T00:48:50.286Z,23.83
2023-04-30T00:51:17.017Z,16.83
2023-04-30T00:53:54.536Z,12.53
2023-04-30T00:56:21.349Z,13.63
2023-04-30T00:58:49.865Z,13.43
2023-04-30T01:01:16.802Z,17.67
2023-04-30T01:03:46.150Z,14.87
2023-04-30T01:06:21.881Z,12.77
2023-04-30T01:08:56.413Z,12.70
2023-04-30T01:11:26.051Z,13.93
2023-04-30T01:14:08.261Z,11.07
2023-04-30T01:16:41.006Z,13.80
2023-04-30T01:19:41.172Z,18.50
2023-04-30T01:22:10.494Z,13.73
2023-04-30T01:25:06.799Z,17.23
2023-04-30T01:28:03.457Z,15.33
2023-04-30T01:30:35.487Z,16.90
2023-04-30T01:33:03.175Z,9.13
2023-04-30T01:35:54.779Z,14.80
2023-04-30T01:38:24.474Z,12.10
2023-04-30T01:41:00.809Z,14.57
2023-04-30T01:43:50.406Z,7.87
2023-04-30T01:46:27.763Z,12.47
2023-04-30T01:49:19.958Z,15.30
2023-04-30T01:51:48.685Z,14.67
2023-04-30T01:54:30.233Z,12.97
2023-04-30T01:57:15.568Z,13.90
2023-04-30T01:59:43.151Z,15.17
2023-04-30T02:02:12.542Z,14.80
2023-04-30T02:04:39.323Z,12.53
2023-04-30T02:07:06.113Z,17.13
2023-04-30T02:09:35.434Z,18.83
2023-04-30T02:12:06.380Z,23.50
2023-04-30T02:14:40.662Z,17.63
2023-04-30T02:17:07.341Z,10.20
2023-04-30T02:19:34.178Z,13.37
2023-04-30T02:22:03.337Z,13.80
2023-04-30T02:24:37.517Z,9.23
2023-04-30T02:27:04.237Z,19.20
2023-04-30T02:29:33.474Z,15.03
2023-04-30T02:32:07.642Z,12.13
2023-04-30T02:34:36.962Z,9.70
2023-04-30T02:37:07.055Z,14.10
2023-04-30T02:39:36.964Z,13.27
2023-04-30T02:42:06.943Z,16.67
2023-04-30T02:44:34.134Z,11.93
2023-04-30T02:47:06.108Z,14.57
2023-04-30T02:49:35.525Z,13.73
2023-04-30T02:52:05.399Z,20.03
2023-04-30T02:54:33.514Z,11.77
2023-04-30T02:57:07.236Z,13.23
2023-04-30T02:59:37.607Z,9.70
2023-04-30T03:02:04.749Z,15.63
2023-04-30T03:04:31.494Z,7.80
2023-04-30T03:07:07.848Z,15.63
2023-04-30T03:09:37.875Z,14.40
2023-04-30T03:12:05.389Z,25.13
2023-04-30T03:14:43.395Z,16.23
2023-04-30T03:17:10.143Z,13.97
2023-04-30T03:19:36.787Z,12.43
2023-04-30T03:22:15.072Z,14.73
2023-04-30T03:24:41.793Z,12.60
2023-04-30T03:27:08.854Z,10.07
2023-04-30T03:29:42.834Z,13.13
2023-04-30T03:32:09.506Z,16.40
2023-04-30T03:34:36.246Z,8.90
2023-04-30T03:37:10.109Z,9.00
2023-04-30T03:39:36.763Z,16.43
2023-04-30T03:42:05.902Z,10.57
2023-04-30T03:44:35.713Z,15.77
2023-04-30T03:47:05.018Z,17.00
2023-04-30T03:49:35.451Z,17.20
2023-04-30T03:52:02.611Z,14.70
2023-04-30T03:54:38.679Z,11.17
2023-04-30T03:57:07.710Z,10.83
2023-04-30T03:59:34.634Z,14.33
2023-04-30T04:02:04.595Z,21.70
2023-04-30T04:04:39.283Z,16.50
2023-04-30T04:07:07.966Z,20.70
2023-04-30T04:09:34.947Z,26.57
2023-04-30T04:12:06.173Z,20.57
2023-04-30T04:14:35.827Z,13.60
2023-04-30T04:17:08.278Z,12.23
2023-04-30T04:19:35.015Z,16.77
2023-04-30T04:22:09.261Z,13.10
2023-04-30T04:24:36.578Z,19.53
2023-04-30T04:27:07.343Z,19.70
2023-04-30T04:29:36.757Z,17.20
2023-04-30T04:32:05.964Z,15.87
2023-04-30T04:34:36.661Z,23.10
2023-04-30T04:37:05.975Z,20.60
2023-04-30T04:39:40.008Z,21.60
2023-04-30T04:42:06.957Z,18.80
2023-04-30T04:44:36.392Z,19.93
2023-04-30T04:47:04.380Z,21.40
2023-04-30T04:49:37.225Z,16.80
2023-04-30T04:52:06.603Z,20.03
2023-04-30T04:54:35.728Z,16.77
2023-04-30T04:57:09.828Z,12.30
2023-04-30T04:59:36.731Z,16.50
2023-04-30T05:02:06.461Z,15.27
2023-04-30T05:04:39.292Z,8.97
2023-04-30T05:07:08.074Z,13.07
2023-04-30T05:09:38.051Z,13.10
2023-04-30T05:12:17.494Z,10.73
2023-04-30T05:14:44.970Z,10.40
2023-04-30T05:17:11.605Z,10.93
2023-04-30T05:19:43.361Z,7.00
2023-04-30T05:22:10.062Z,9.83
2023-04-30T05:24:36.788Z,10.10
2023-04-30T05:27:09.953Z,10.20
2023-04-30T05:29:36.731Z,13.73
2023-04-30T05:32:06.172Z,10.37
2023-04-30T05:34:35.884Z,8.90
2023-04-30T05:37:10.265Z,11.73
2023-04-30T05:39:37.067Z,10.13
2023-04-30T05:42:06.256Z,13.93
2023-04-30T05:44:41.039Z,12.80
2023-04-30T05:47:07.775Z,8.40
2023-04-30T05:49:36.860Z,12.20
2023-04-30T05:52:06.199Z,15.40
2023-04-30T05:54:35.219Z,8.80
2023-04-30T05:57:04.856Z,8.60
2023-04-30T05:59:39.222Z,9.70
2023-04-30T06:02:06.803Z,10.93
2023-04-30T06:04:36.672Z,13.27
2023-04-30T06:07:06.008Z,9.00
2023-04-30T06:09:35.181Z,10.47
2023-04-30T06:12:04.676Z,12.60
2023-04-30T06:14:43.451Z,11.33
2023-04-30T06:17:10.281Z,12.17
2023-04-30T06:19:38.818Z,9.23
2023-04-30T06:22:05.500Z,11.33
2023-04-30T06:24:37.580Z,15.17
2023-04-30T06:27:06.848Z,13.00
2023-04-30T06:29:35.987Z,15.50
2023-04-30T06:32:08.540Z,11.97
2023-04-30T06:34:35.697Z,9.83
2023-04-30T06:37:09.925Z,11.63
2023-04-30T06:39:38.980Z,10.70
2023-04-30T06:42:05.998Z,7.90
2023-04-30T06:44:35.711Z,9.67
2023-04-30T06:47:12.782Z,10.90
2023-04-30T06:49:39.481Z,9.47
2023-04-30T06:52:06.044Z,11.90
2023-04-30T06:54:43.880Z,11.77
2023-04-30T06:57:10.649Z,11.60
2023-04-30T06:59:37.734Z,15.33
2023-04-30T07:02:12.091Z,14.63
2023-04-30T07:04:38.911Z,9.80
2023-04-30T07:07:05.632Z,13.97
2023-04-30T07:09:51.673Z,15.40
2023-04-30T07:12:18.531Z,6.10
2023-04-30T07:14:45.254Z,9.87
2023-04-30T07:17:14.943Z,14.10
2023-04-30T07:19:41.786Z,15.53
2023-04-30T07:22:08.377Z,9.43
2023-04-30T07:24:43.583Z,8.07
2023-04-30T07:27:10.889Z,11.03
2023-04-30T07:29:37.595Z,14.87
2023-04-30T07:32:07.326Z,13.50
2023-04-30T07:34:36.283Z,10.10
2023-04-30T07:37:10.645Z,13.93
2023-04-30T07:39:37.698Z,12.37
2023-04-30T07:42:07.528Z,8.90
2023-04-30T07:44:36.603Z,11.87
2023-04-30T07:47:05.494Z,8.80
2023-04-30T07:49:39.740Z,7.83
2023-04-30T07:52:08.193Z,16.77
2023-04-30T07:54:38.869Z,16.60
2023-04-30T07:57:08.617Z,12.90
2023-04-30T07:59:35.469Z,13.27
2023-04-30T08:02:10.960Z,14.23
2023-04-30T08:04:37.919Z,10.50
2023-04-30T08:07:07.630Z,10.73
2023-04-30T08:09:36.637Z,9.20
2023-04-30T08:12:06.330Z,7.97
2023-04-30T08:14:38.966Z,9.47
2023-04-30T08:17:05.855Z,12.63
2023-04-30T08:19:35.666Z,6.13
2023-04-30T08:22:11.552Z,13.57
2023-04-30T08:24:38.492Z,11.90
2023-04-30T08:27:08.361Z,10.33
2023-04-30T08:29:43.900Z,9.97
2023-04-30T08:32:11.255Z,11.50
2023-04-30T08:34:38.018Z,9.53
2023-04-30T08:37:23.106Z,8.37
2023-04-30T08:39:59.171Z,12.00
2023-04-30T08:42:30.883Z,9.80
2023-04-30T08:45:00.288Z,8.30
2023-04-30T08:47:27.837Z,12.77
2023-04-30T08:49:54.854Z,11.23
2023-04-30T08:52:24.302Z,13.63
2023-04-30T08:55:01.146Z,12.93
2023-04-30T08:57:28.122Z,12.87
2023-04-30T08:59:55.493Z,11.00
2023-04-30T09:02:32.425Z,7.60
2023-04-30T09:04:59.145Z,11.53
2023-04-30T09:07:28.970Z,7.40
2023-04-30T09:10:00.751Z,16.30
2023-04-30T09:12:27.561Z,9.80
2023-04-30T09:15:00.322Z,4.97
2023-04-30T09:17:30.493Z,14.70
2023-04-30T09:20:13.731Z,11.27
2023-04-30T09:22:41.925Z,8.60
2023-04-30T09:25:11.697Z,9.63
2023-04-30T09:27:45.635Z,12.77
2023-04-30T09:30:31.250Z,7.87
2023-04-30T09:32:57.988Z,10.67
2023-04-30T09:35:33.490Z,7.60
2023-04-30T09:38:02.091Z,9.43
2023-04-30T09:40:35.424Z,5.10
2023-04-30T09:43:02.238Z,11.60
2023-04-30T09:45:49.981Z,7.77
2023-04-30T09:48:23.188Z,8.33
2023-04-30T09:50:51.521Z,14.17
2023-04-30T09:53:19.237Z,11.83
2023-04-30T09:55:50.703Z,12.70
2023-04-30T09:58:19.198Z,7.90
2023-04-30T10:00:48.256Z,10.20
2023-04-30T10:03:17.321Z,8.87
2023-04-30T10:05:48.937Z,6.13
2023-04-30T10:08:29.026Z,7.17
2023-04-30T10:11:01.234Z,6.50
2023-04-30T10:14:04.328Z,8.43
2023-04-30T10:16:37.500Z,7.83
2023-04-30T10:19:08.049Z,6.17
2023-04-30T10:21:35.465Z,5.00
2023-04-30T10:24:02.929Z,4.67
2023-04-30T10:26:30.348Z,7.90
2023-04-30T10:28:59.066Z,7.13
2023-04-30T10:31:26.240Z,6.93
2023-04-30T10:34:11.658Z,8.00
2023-04-30T10:36:50.560Z,9.07
2023-04-30T10:39:21.963Z,7.10
2023-04-30T10:41:49.127Z,5.67
2023-04-30T10:44:18.290Z,7.80
2023-04-30T10:46:46.589Z,7.10
2023-04-30T10:49:14.668Z,8.17
2023-04-30T10:51:47.613Z,11.83
2023-04-30T10:54:29.582Z,5.93
2023-04-30T10:57:20.264Z,6.83
2023-04-30T11:00:10.145Z,5.83
2023-04-30T11:02:40.851Z,5.77
2023-04-30T11:05:07.826Z,7.33
2023-04-30T11:07:34.777Z,8.00
2023-04-30T11:10:04.722Z,8.40
2023-04-30T11:12:31.523Z,8.07
2023-04-30T11:15:06.897Z,6.47
2023-04-30T11:17:35.919Z,8.83
2023-04-30T11:20:02.724Z,10.97
2023-04-30T11:22:36.355Z,8.47
2023-04-30T11:25:17.744Z,7.93
2023-04-30T11:27:46.332Z,10.40
2023-04-30T11:30:15.254Z,5.80
2023-04-30T11:32:51.884Z,6.47
2023-04-30T11:35:30.512Z,9.60
2023-04-30T11:38:00.403Z,10.60
2023-04-30T11:40:35.555Z,10.03
2023-04-30T11:43:02.240Z,8.97
2023-04-30T11:45:29.190Z,5.43
2023-04-30T11:47:58.969Z,8.20
2023-04-30T11:50:29.687Z,7.00
2023-04-30T11:53:03.304Z,10.63
2023-04-30T11:55:30.655Z,8.87
2023-04-30T11:57:59.400Z,11.07
2023-04-30T12:00:28.642Z,9.23
2023-04-30T12:02:56.250Z,5.70
2023-04-30T12:05:24.658Z,8.13
2023-04-30T12:07:56.098Z,6.80
2023-04-30T12:10:23.737Z,8.50
2023-04-30T12:12:52.832Z,8.47
2023-04-30T12:15:29.036Z,7.47
2023-04-30T12:17:57.579Z,5.37
2023-04-30T12:20:26.809Z,5.70
2023-04-30T12:22:53.809Z,5.13
2023-04-30T12:25:22.227Z,6.80
2023-04-30T12:27:53.275Z,5.10
2023-04-30T12:30:26.950Z,8.97
2023-04-30T12:32:56.671Z,8.30
2023-04-30T12:35:24.451Z,10.23
2023-04-30T12:37:54.986Z,6.90
2023-04-30T12:40:26.926Z,8.57
2023-04-30T12:43:07.300Z,6.10
2023-04-30T12:45:52.832Z,12.13
2023-04-30T12:48:24.559Z,7.43
2023-04-30T12:51:01.862Z,11.63
2023-04-30T12:53:29.658Z,4.47
2023-04-30T12:56:16.681Z,9.80
2023-04-30T12:58:49.596Z,4.93
2023-04-30T13:01:24.392Z,3.10
2023-04-30T13:03:52.811Z,6.40
2023-04-30T13:06:21.659Z,5.57
2023-04-30T13:08:57.869Z,6.67
2023-04-30T13:11:26.708Z,3.20
2023-04-30T13:13:55.437Z,7.53
2023-04-30T13:16:22.807Z,3.60
2023-04-30T13:18:49.530Z,7.63
2023-04-30T13:21:16.146Z,6.47
2023-04-30T13:23:51.937Z,5.33
2023-04-30T13:26:21.495Z,5.20
2023-04-30T13:28:48.167Z,5.30
2023-04-30T13:31:14.908Z,10.13
2023-04-30T13:33:41.660Z,4.67
2023-04-30T13:36:08.337Z,5.27
2023-04-30T13:38:34.961Z,6.10
2023-04-30T13:41:01.689Z,7.00
2023-04-30T13:43:28.460Z,5.70
2023-04-30T13:45:55.089Z,6.33
2023-04-30T13:48:21.807Z,7.30
2023-04-30T13:50:48.362Z,6.33
2023-04-30T13:53:15.376Z,6.07
2023-04-30T13:55:42.468Z,7.33
2023-04-30T13:58:09.379Z,9.07
2023-04-30T14:00:36.079Z,8.53
2023-04-30T14:03:04.032Z,4.07
2023-04-30T14:05:32.316Z,7.80
2023-04-30T14:07:59.146Z,7.47
2023-04-30T14:10:25.816Z,6.47
2023-04-30T14:12:52.549Z,9.07
2023-04-30T14:15:19.254Z,7.30
2023-04-30T14:17:45.883Z,3.20
2023-04-30T14:20:13.660Z,8.13
2023-04-30T14:22:40.304Z,7.90
2023-04-30T14:25:07.637Z,7.73
2023-04-30T14:27:34.389Z,6.40
2023-04-30T14:30:01.023Z,8.23
2023-04-30T14:32:27.994Z,4.33
2023-04-30T14:34:54.656Z,6.07
2023-04-30T14:37:21.317Z,7.13
2023-04-30T14:39:47.986Z,7.30
2023-04-30T14:42:14.780Z,5.27
2023-04-30T14:44:41.482Z,6.90
2023-04-30T14:47:08.171Z,7.93
2023-04-30T14:49:34.852Z,5.50
2023-04-30T14:52:01.912Z,4.77
2023-04-30T14:54:28.612Z,6.30
2023-04-30T14:56:55.365Z,7.87
2023-04-30T14:59:22.090Z,5.47
2023-04-30T15:01:48.865Z,5.00
2023-04-30T15:04:15.575Z,3.73
2023-04-30T15:06:42.391Z,5.13
2023-04-30T15:09:09.154Z,5.63
2023-04-30T15:11:36.441Z,5.23
2023-04-30T15:14:03.025Z,7.87
2023-04-30T15:16:29.887Z,6.70
2023-04-30T15:18:56.912Z,4.63
2023-04-30T15:21:24.055Z,6.63
2023-04-30T15:23:50.955Z,4.23
2023-04-30T15:26:17.733Z,7.43
2023-04-30T15:28:44.413Z,5.77
2023-04-30T15:31:11.397Z,8.47
2023-04-30T15:33:42.023Z,4.47
2023-04-30T15:36:10.441Z,4.30
2023-04-30T15:38:37.076Z,3.53
2023-04-30T15:41:03.733Z,8.47
2023-04-30T15:43:32.276Z,5.50
2023-04-30T15:45:59.080Z,5.47
2023-04-30T15:48:25.879Z,5.23
2023-04-30T15:50:52.515Z,16.90
2023-04-30T15:53:19.266Z,4.53
2023-04-30T15:55:47.814Z,7.17
2023-04-30T15:58:14.845Z,9.73
2023-04-30T16:00:41.629Z,7.53
2023-04-30T16:03:08.438Z,9.83
2023-04-30T16:05:38.726Z,6.03
2023-04-30T16:08:10.393Z,4.10
2023-04-30T16:10:37.811Z,4.20
2023-04-30T16:13:04.875Z,5.37
2023-04-30T16:15:32.459Z,4.70
2023-04-30T16:17:59.314Z,5.07
2023-04-30T16:20:27.405Z,3.60
2023-04-30T16:22:55.025Z,6.30
2023-04-30T16:25:22.655Z,5.40
2023-04-30T16:27:50.158Z,4.40
2023-04-30T16:30:16.883Z,6.33
2023-04-30T16:32:44.552Z,7.17
2023-04-30T16:35:11.704Z,9.83
2023-04-30T16:37:38.588Z,6.13
2023-04-30T16:40:07.449Z,4.10
2023-04-30T16:42:34.497Z,9.40
2023-04-30T16:45:05.057Z,4.43
2023-04-30T16:47:31.929Z,2.73
2023-04-30T16:49:58.809Z,7.60
2023-04-30T16:52:25.549Z,6.73
2023-04-30T16:54:52.182Z,6.80
2023-04-30T16:57:18.781Z,10.43
2023-04-30T16:59:46.758Z,4.80
2023-04-30T17:02:13.527Z,6.80
2023-04-30T17:04:40.169Z,6.30
2023-04-30T17:07:07.394Z,6.13
2023-04-30T17:09:34.152Z,5.20
2023-04-30T17:12:02.567Z,3.30
2023-04-30T17:14:29.482Z,5.50
2023-04-30T17:16:57.340Z,6.03
2023-04-30T17:19:24.051Z,5.03
2023-04-30T17:21:50.991Z,7.47
2023-04-30T17:24:17.597Z,3.63
2023-04-30T17:26:44.349Z,6.73
2023-04-30T17:29:10.960Z,6.30
2023-04-30T17:31:37.766Z,7.80
2023-04-30T17:34:04.484Z,6.23
2023-04-30T17:36:31.168Z,7.57
2023-04-30T17:38:57.833Z,7.47
2023-04-30T17:41:24.494Z,7.10
2023-04-30T17:43:51.802Z,3.87
2023-04-30T17:46:18.519Z,4.53
2023-04-30T17:48:45.228Z,5.77
2023-04-30T17:51:11.946Z,5.77
2023-04-30T17:53:38.637Z,5.53
2023-04-30T17:56:05.748Z,4.40
2023-04-30T17:58:32.654Z,7.60
2023-04-30T18:01:01.774Z,7.57
2023-04-30T18:03:28.816Z,6.67
2023-04-30T18:05:55.896Z,4.47
2023-04-30T18:08:22.507Z,7.27
2023-04-30T18:10:49.434Z,3.90
2023-04-30T18:13:16.100Z,5.10
2023-04-30T18:15:42.807Z,5.23
2023-04-30T18:18:09.929Z,6.80
2023-04-30T18:20:37.057Z,6.30
2023-04-30T18:23:05.531Z,7.93
2023-04-30T18:25:34.215Z,6.13
2023-04-30T18:28:01.486Z,5.53
2023-04-30T18:30:28.211Z,5.10
2023-04-30T18:32:54.889Z,4.53
2023-04-30T18:35:22.197Z,6.70
2023-04-30T18:37:49.659Z,5.67
2023-04-30T18:40:16.657Z,5.43
2023-04-30T18:42:43.296Z,7.10
2023-04-30T18:45:11.509Z,5.43
2023-04-30T18:47:38.308Z,8.73
2023-04-30T18:50:07.029Z,4.87
2023-04-30T18:52:33.876Z,4.60
2023-04-30T18:55:00.843Z,4.63
2023-04-30T18:57:27.481Z,10.90
2023-04-30T18:59:55.194Z,9.17
2023-04-30T19:02:22.142Z,3.50
2023-04-30T19:04:49.782Z,11.83
2023-04-30T19:07:17.034Z,5.90
2023-04-30T19:09:45.203Z,6.63
2023-04-30T19:12:12.170Z,6.90
2023-04-30T19:14:38.888Z,9.80
2023-04-30T19:17:05.838Z,6.27
2023-04-30T19:19:33.035Z,12.07
2023-04-30T19:21:59.689Z,6.87
2023-04-30T19:24:26.416Z,6.20
2023-04-30T19:26:53.122Z,6.43
2023-04-30T19:29:19.799Z,10.80
2023-04-30T19:31:46.657Z,4.13
2023-04-30T19:34:13.992Z,4.37
2023-04-30T19:36:41.738Z,8.50
2023-04-30T19:39:10.729Z,6.10
2023-04-30T19:41:37.978Z,7.63
2023-04-30T19:44:04.815Z,4.40
2023-04-30T19:46:31.562Z,9.30
2023-04-30T19:48:58.277Z,5.80
2023-04-30T19:51:25.543Z,8.73
2023-04-30T19:53:53.105Z,8.30
2023-04-30T19:56:20.925Z,15.60
2023-04-30T19:58:48.470Z,6.23
2023-04-30T20:01:15.466Z,10.60
2023-04-30T20:03:42.669Z,3.90
2023-04-30T20:06:10.125Z,8.70
2023-04-30T20:08:37.633Z,11.47
2023-04-30T20:11:04.541Z,6.20
2023-04-30T20:13:31.498Z,9.63
2023-04-30T20:15:58.283Z,5.50
2023-04-30T20:18:25.032Z,7.40
2023-04-30T20:20:52.407Z,6.53
2023-04-30T20:23:20.520Z,4.00
2023-04-30T20:25:47.915Z,6.47
2023-04-30T20:28:15.764Z,9.57
2023-04-30T20:30:43.284Z,7.70
2023-04-30T20:33:10.984Z,6.23
2023-04-30T20:35:41.845Z,12.63
2023-04-30T20:38:09.294Z,9.20
2023-04-30T20:40:39.949Z,6.80
2023-04-30T20:43:10.940Z,9.33
2023-04-30T20:45:37.741Z,11.07
2023-04-30T20:48:05.000Z,5.73
2023-04-30T20:50:31.906Z,6.93
2023-04-30T20:52:58.794Z,4.73
2023-04-30T20:55:25.461Z,6.73
2023-04-30T20:57:52.289Z,7.40
2023-04-30T21:00:19.140Z,4.50
2023-04-30T21:02:46.957Z,9.40
2023-04-30T21:05:13.729Z,9.40
2023-04-30T21:07:40.319Z,6.83
2023-04-30T21:10:08.389Z,7.60
2023-04-30T21:12:35.516Z,6.30
2023-04-30T21:15:02.170Z,6.10
2023-04-30T21:17:28.906Z,4.43
2023-04-30T21:19:56.887Z,3.40
2023-04-30T21:22:24.288Z,12.17
2023-04-30T21:24:53.484Z,6.43
2023-04-30T21:27:20.768Z,6.67
2023-04-30T21:29:47.837Z,3.10
2023-04-30T21:32:14.478Z,5.80
2023-04-30T21:34:41.027Z,6.70
2023-04-30T21:37:07.631Z,10.47
2023-04-30T21:39:34.229Z,7.50
2023-04-30T21:42:00.894Z,5.40
2023-04-30T21:44:32.316Z,8.63
2023-04-30T21:46:59.575Z,7.37
2023-04-30T21:49:26.388Z,7.43
2023-04-30T21:51:53.144Z,14.63
2023-04-30T21:54:19.800Z,4.63
2023-04-30T21:56:46.746Z,4.10
2023-04-30T21:59:13.421Z,5.73
2023-04-30T22:01:40.090Z,6.67
2023-04-30T22:04:06.988Z,4.97
2023-04-30T22:06:34.725Z,10.17
2023-04-30T22:09:01.545Z,6.67
2023-04-30T22:11:28.219Z,8.07
2023-04-30T22:13:54.860Z,11.23
2023-04-30T22:16:21.747Z,8.90
2023-04-30T22:18:48.364Z,6.33
2023-04-30T22:21:15.090Z,8.23
2023-04-30T22:23:41.864Z,8.23
2023-04-30T22:26:09.919Z,7.93
2023-04-30T22:28:39.863Z,5.10
2023-04-30T22:31:06.590Z,7.60
2023-04-30T22:33:37.147Z,10.23
2023-04-30T22:36:08.498Z,7.77
2023-04-30T22:38:35.328Z,5.60
2023-04-30T22:41:03.786Z,10.40
2023-04-30T22:43:31.033Z,10.87
2023-04-30T22:45:58.664Z,12.70
2023-04-30T22:48:26.907Z,10.33
2023-04-30T22:50:53.866Z,5.80
2023-04-30T22:53:20.781Z,8.30
2023-04-30T22:55:47.574Z,9.77
2023-04-30T22:58:14.251Z,7.10
2023-04-30T23:00:41.257Z,8.70
2023-04-30T23:03:08.245Z,12.23
2023-04-30T23:05:35.048Z,6.60
2023-04-30T23:08:01.740Z,6.40
2023-04-30T23:10:28.419Z,7.47
2023-04-30T23:12:56.532Z,9.00
2023-04-30T23:15:23.289Z,6.00
2023-04-30T23:17:50.167Z,7.80
2023-04-30T23:20:17.072Z,4.00
2023-04-30T23:22:43.993Z,10.50
2023-04-30T23:25:11.677Z,8.17
2023-04-30T23:27:38.323Z,12.43
2023-04-30T23:30:05.612Z,6.77
2023-04-30T23:32:33.409Z,8.80
2023-04-30T23:35:00.199Z,4.57
2023-04-30T23:37:27.221Z,7.27
2023-04-30T23:39:54.554Z,5.90
2023-04-30T23:42:21.336Z,6.23
2023-04-30T23:44:47.888Z,6.03
2023-04-30T23:47:14.495Z,9.93
2023-04-30T23:49:41.155Z,11.37
2023-04-30T23:52:07.840Z,6.53
2023-04-30T23:54:35.010Z,11.23
2023-04-30T23:57:01.996Z,6.07
2023-04-30T23:59:28.595Z,9.17
